createdAt,value
2024-02-13T00:04:43.601Z,62.78
2024-02-13T00:09:45.897Z,62.30
2024-02-13T00:14:50.069Z,62.40
2024-02-13T00:19:53.952Z,61.92
2024-02-13T00:24:56.188Z,61.25
2024-02-13T00:29:59.180Z,60.35
2024-02-13T00:35:04.288Z,60.60
2024-02-13T00:40:11.829Z,60.62
2024-02-13T00:45:14.131Z,60.45
2024-02-13T00:50:37.017Z,61.07
2024-02-13T00:55:39.291Z,60.34
2024-02-13T01:00:41.461Z,60.50
2024-02-13T01:05:44.618Z,60.56
2024-02-13T01:10:47.284Z,59.82
2024-02-13T01:15:49.783Z,60.13
2024-02-13T01:20:52.150Z,59.44
2024-02-13T01:25:54.446Z,60.20
2024-02-13T01:30:59.804Z,59.33
2024-02-13T01:36:05.390Z,59.33
2024-02-13T01:41:08.339Z,59.39
2024-02-13T01:46:12.704Z,59.00
2024-02-13T01:58:39.936Z,59.54
2024-02-13T02:03:43.019Z,59.25
2024-02-13T02:08:46.919Z,59.62
2024-02-13T02:13:49.368Z,59.79
2024-02-13T02:19:42.514Z,59.76
2024-02-13T02:24:44.879Z,59.77
2024-02-13T02:29:57.660Z,59.42
2024-02-13T02:35:00.525Z,59.13
2024-02-13T02:40:03.125Z,59.14
2024-02-13T02:45:07.876Z,59.98
2024-02-13T02:50:13.443Z,59.66
2024-02-13T02:55:19.264Z,59.93
2024-02-13T03:00:22.613Z,60.35
2024-02-13T03:05:41.985Z,60.23
2024-02-13T03:10:44.511Z,60.25
2024-02-13T03:15:47.557Z,59.40
2024-02-13T03:20:49.803Z,59.93
2024-02-13T03:25:52.066Z,59.04
2024-02-13T03:31:14.231Z,59.30
2024-02-13T03:36:21.138Z,59.70
2024-02-13T03:41:23.390Z,60.77
2024-02-13T03:46:25.688Z,60.02
2024-02-13T03:51:27.912Z,59.50
2024-02-13T03:56:30.108Z,59.64
2024-02-13T04:01:33.116Z,59.90
2024-02-13T04:06:35.415Z,60.46
2024-02-13T04:11:37.857Z,60.08
2024-02-13T04:16:42.807Z,60.21
2024-02-13T04:21:46.156Z,59.93
2024-02-13T04:26:48.459Z,59.68
2024-02-13T04:31:51.228Z,59.75
2024-02-13T04:36:53.592Z,59.80
2024-02-13T04:41:55.934Z,60.21
2024-02-13T04:46:58.265Z,60.01
2024-02-13T04:52:00.636Z,60.16
2024-02-13T04:57:02.973Z,59.19
2024-02-13T05:02:07.262Z,59.50
2024-02-13T05:07:21.545Z,58.84
2024-02-13T05:12:24.347Z,59.09
2024-02-13T05:17:28.767Z,59.33
2024-02-13T05:22:31.060Z,59.30
2024-02-13T05:27:33.459Z,59.57
2024-02-13T05:32:35.819Z,59.64
2024-02-13T05:37:39.013Z,60.14
2024-02-13T05:42:41.527Z,60.36
2024-02-13T05:47:43.826Z,59.88
2024-02-13T05:52:48.763Z,59.85
2024-02-13T05:57:52.065Z,59.45
2024-02-13T06:02:57.412Z,59.54
2024-02-13T06:07:59.668Z,58.41
2024-02-13T06:13:02.119Z,58.18
2024-02-13T06:18:06.001Z,59.03
2024-02-13T06:23:08.470Z,58.20
2024-02-13T06:28:10.810Z,57.50
2024-02-13T06:33:13.830Z,57.56
2024-02-13T06:38:16.961Z,58.01
2024-02-13T06:43:20.009Z,57.54
2024-02-13T06:48:22.267Z,57.89
2024-02-13T06:53:25.115Z,57.30
2024-02-13T06:58:27.304Z,58.00
2024-02-13T07:03:48.202Z,56.67
2024-02-13T07:08:50.571Z,57.30
2024-02-13T07:13:53.158Z,57.68
2024-02-13T07:18:55.527Z,57.28
2024-02-13T07:23:58.248Z,56.71
2024-02-13T07:29:00.553Z,57.05
2024-02-13T07:34:03.212Z,56.19
2024-02-13T07:39:06.408Z,55.96
2024-02-13T07:44:08.938Z,55.72
2024-02-13T07:49:12.081Z,55.48
2024-02-13T07:54:16.177Z,55.82
2024-02-13T07:59:18.575Z,56.89
2024-02-13T08:04:21.114Z,56.49
2024-02-13T08:09:23.372Z,55.91
2024-02-13T08:14:25.641Z,55.79
2024-02-13T08:19:28.012Z,55.47
2024-02-13T08:24:30.576Z,55.17
2024-02-13T08:29:33.192Z,52.96
2024-02-13T08:34:35.859Z,52.32
2024-02-13T08:39:39.835Z,51.21
2024-02-13T08:44:44.385Z,52.32
2024-02-13T08:49:46.803Z,50.53
2024-02-13T08:54:49.215Z,50.23
2024-02-13T08:59:55.949Z,50.42
2024-02-13T09:04:59.216Z,51.27
2024-02-13T09:10:01.558Z,51.79
2024-02-13T09:15:12.786Z,53.59
2024-02-13T09:20:16.498Z,52.99
2024-02-13T09:25:21.277Z,52.85
2024-02-13T09:30:23.530Z,52.99
2024-02-13T09:35:26.022Z,53.64
2024-02-13T09:40:33.943Z,53.10
2024-02-13T09:45:40.679Z,52.57
2024-02-13T09:50:44.884Z,53.67
2024-02-13T09:55:48.041Z,52.41
2024-02-13T10:00:52.360Z,52.98
2024-02-13T10:05:54.846Z,52.69
2024-02-13T10:11:05.274Z,52.98
2024-02-13T10:16:22.339Z,52.50
2024-02-13T10:21:27.770Z,53.25
2024-02-13T10:26:30.589Z,52.29
2024-02-13T10:31:41.562Z,51.81
2024-02-13T10:36:46.707Z,52.41
2024-02-13T10:41:53.021Z,53.80
2024-02-13T10:46:59.370Z,52.63
2024-02-13T10:52:07.082Z,52.89
2024-02-13T10:57:09.907Z,53.54
2024-02-13T11:02:15.887Z,54.93
2024-02-13T11:07:19.714Z,52.68
2024-02-13T11:12:22.786Z,52.65
2024-02-13T11:17:32.490Z,52.61
2024-02-13T11:23:01.072Z,52.64
2024-02-13T11:28:10.277Z,52.64
2024-02-13T11:33:20.331Z,51.87
2024-02-13T11:38:26.582Z,52.46
2024-02-13T11:43:29.702Z,51.71
2024-02-13T11:48:35.295Z,53.03
2024-02-13T11:53:42.194Z,52.51
2024-02-13T11:58:44.486Z,51.67
2024-02-13T12:03:47.279Z,51.79
2024-02-13T12:08:50.168Z,51.91
2024-02-13T12:13:52.492Z,52.24
2024-02-13T12:18:58.983Z,51.52
2024-02-13T12:24:02.990Z,52.06
2024-02-13T12:29:16.684Z,51.88
2024-02-13T12:34:20.462Z,52.31
2024-02-13T12:39:27.068Z,53.01
2024-02-13T12:44:32.208Z,52.71
2024-02-13T12:49:35.450Z,53.10
2024-02-13T12:54:37.688Z,53.31
2024-02-13T12:59:40.152Z,53.94
2024-02-13T13:04:42.930Z,53.75
2024-02-13T13:09:45.675Z,53.96
2024-02-13T13:14:48.523Z,53.83
2024-02-13T13:19:51.099Z,53.39
2024-02-13T13:24:53.712Z,53.25
2024-02-13T13:29:56.047Z,54.01
2024-02-13T13:35:01.732Z,54.55
2024-02-13T13:40:13.663Z,54.59
2024-02-13T13:45:16.145Z,55.05
2024-02-13T13:50:19.181Z,55.83
2024-02-13T13:55:21.982Z,55.43
2024-02-13T14:00:24.734Z,55.21
2024-02-13T14:05:27.019Z,55.90
2024-02-13T14:10:30.343Z,56.04
2024-02-13T14:15:35.613Z,56.35
2024-02-13T14:20:40.846Z,56.11
2024-02-13T14:25:43.232Z,56.58
2024-02-13T14:30:45.603Z,56.56
2024-02-13T14:35:49.017Z,56.68
2024-02-13T14:40:57.257Z,57.30
2024-02-13T14:46:00.702Z,57.17
2024-02-13T14:51:03.233Z,56.92
2024-02-13T14:56:06.615Z,56.97
2024-02-13T15:01:10.789Z,57.46
2024-02-13T15:06:13.887Z,56.90
2024-02-13T15:11:16.448Z,58.02
2024-02-13T15:16:19.588Z,57.80
2024-02-13T15:21:31.246Z,58.13
2024-02-13T15:26:34.635Z,57.70
2024-02-13T15:31:39.624Z,57.27
2024-02-13T15:37:10.840Z,57.47
2024-02-13T15:42:31.970Z,57.68
2024-02-13T15:47:35.395Z,57.56
2024-02-13T15:52:43.952Z,57.32
2024-02-13T15:57:48.369Z,58.13
2024-02-13T16:02:51.443Z,57.53
2024-02-13T16:07:53.724Z,57.92
2024-02-13T16:12:56.987Z,57.78
2024-02-13T16:18:00.816Z,57.93
2024-02-13T16:23:05.984Z,58.18
2024-02-13T16:28:08.370Z,57.83
2024-02-13T16:33:11.113Z,57.93
2024-02-13T16:38:13.518Z,57.91
2024-02-13T16:43:16.773Z,58.99
2024-02-13T16:48:20.642Z,58.90
2024-02-13T16:53:23.195Z,57.93
2024-02-13T16:58:25.831Z,59.09
2024-02-13T17:03:28.088Z,58.89
2024-02-13T17:08:34.674Z,58.52
2024-02-13T17:13:37.446Z,58.85
2024-02-13T17:18:39.805Z,58.40
2024-02-13T17:23:42.130Z,58.42
2024-02-13T17:28:44.415Z,58.05
2024-02-13T17:33:46.830Z,58.45
2024-02-13T17:38:50.502Z,58.41
2024-02-13T17:43:54.380Z,58.50
2024-02-13T17:48:57.828Z,58.68
2024-02-13T17:54:00.171Z,58.58
2024-02-13T17:59:02.859Z,58.72
2024-02-13T18:04:06.356Z,59.38
2024-02-13T18:09:11.623Z,59.37
2024-02-13T18:14:14.059Z,59.39
2024-02-13T18:19:19.760Z,58.75
2024-02-13T18:24:22.205Z,59.16
2024-02-13T18:29:24.699Z,59.16
2024-02-13T18:34:28.272Z,59.33
2024-02-13T18:39:30.654Z,58.70
2024-02-13T18:44:35.242Z,58.94
2024-02-13T18:49:37.726Z,59.63
2024-02-13T18:54:40.146Z,59.48
2024-02-13T18:59:43.468Z,58.89
2024-02-13T19:04:45.747Z,59.31
2024-02-13T19:09:48.056Z,58.96
2024-02-13T19:14:50.372Z,59.31
2024-02-13T19:26:34.979Z,58.97
2024-02-13T19:31:37.974Z,59.77
2024-02-13T19:36:40.655Z,60.18
2024-02-13T19:41:49.197Z,59.29
2024-02-13T19:46:51.492Z,59.89
2024-02-13T19:52:13.927Z,59.15
2024-02-13T19:57:36.099Z,59.60
2024-02-13T20:02:58.407Z,59.32
2024-02-13T20:08:20.995Z,59.65
2024-02-13T20:13:24.207Z,59.63
2024-02-13T20:18:26.565Z,58.52
2024-02-13T20:23:28.998Z,59.07
2024-02-13T20:28:33.331Z,59.24
2024-02-13T20:33:36.741Z,58.72
2024-02-13T20:38:40.230Z,59.22
2024-02-13T20:43:44.970Z,59.47
2024-02-13T20:48:47.770Z,59.13
2024-02-13T20:53:50.652Z,59.84
2024-02-13T20:58:53.178Z,59.44
2024-02-13T21:03:55.792Z,59.05
2024-02-13T21:08:59.035Z,59.44
2024-02-13T21:14:02.160Z,58.94
2024-02-13T21:19:04.634Z,59.15
2024-02-13T21:24:07.817Z,58.84
2024-02-13T21:29:10.394Z,58.91
2024-02-13T21:34:13.376Z,59.19
2024-02-13T21:39:15.805Z,59.22
2024-02-13T21:44:19.759Z,59.00
2024-02-13T21:49:22.705Z,58.68
2024-02-13T21:54:24.964Z,59.17
2024-02-13T21:59:27.329Z,58.33
2024-02-13T22:04:32.679Z,58.70
2024-02-13T22:09:36.441Z,59.27
2024-02-13T22:14:38.689Z,58.58
2024-02-13T22:19:40.986Z,59.22
2024-02-13T22:24:43.395Z,59.11
2024-02-13T22:29:45.724Z,58.93
2024-02-13T22:34:48.786Z,58.92
2024-02-13T22:39:51.059Z,58.70
2024-02-13T22:44:53.328Z,58.05
2024-02-13T22:49:55.606Z,57.93
2024-02-13T22:54:57.829Z,58.35
2024-02-13T23:00:00.552Z,58.56
2024-02-13T23:05:07.460Z,58.12
2024-02-13T23:10:10.349Z,57.99
2024-02-13T23:15:13.059Z,57.93
2024-02-13T23:20:22.923Z,58.69
2024-02-13T23:25:25.288Z,58.88
2024-02-13T23:30:27.848Z,59.19
2024-02-13T23:35:30.214Z,58.54
2024-02-13T23:41:30.085Z,58.96
2024-02-13T23:46:32.603Z,59.14
2024-02-13T23:51:35.834Z,58.57
2024-02-13T23:56:38.209Z,58.89
